createdAt,value
2023-08-27T00:04:46.702Z,7.57
2023-08-27T00:10:00.929Z,8.27
2023-08-27T00:15:13.896Z,8.10
2023-08-27T00:20:26.790Z,8.40
2023-08-27T00:25:41.034Z,8.23
2023-08-27T00:31:01.297Z,8.17
2023-08-27T00:36:14.455Z,7.73
2023-08-27T00:41:28.735Z,7.37
2023-08-27T00:46:41.644Z,6.50
2023-08-27T00:51:54.559Z,6.90
2023-08-27T00:57:08.920Z,6.27
2023-08-27T01:02:22.019Z,7.87
2023-08-27T01:07:38.383Z,8.23
2023-08-27T01:12:59.051Z,8.00
2023-08-27T01:18:13.265Z,7.33
2023-08-27T01:23:27.728Z,7.17
2023-08-27T01:28:44.458Z,7.40
2023-08-27T01:34:00.268Z,7.80
2023-08-27T01:39:16.045Z,8.00
2023-08-27T01:44:30.126Z,7.33
2023-08-27T01:49:43.034Z,6.47
2023-08-27T01:54:57.309Z,7.00
2023-08-27T02:00:10.961Z,6.77
2023-08-27T02:05:29.673Z,7.57
2023-08-27T02:10:44.333Z,7.70
2023-08-27T02:15:57.786Z,7.27
2023-08-27T02:21:10.731Z,6.50
2023-08-27T02:26:24.986Z,6.80
2023-08-27T02:31:37.905Z,6.73
2023-08-27T02:36:50.789Z,6.60
2023-08-27T02:42:05.332Z,6.50
2023-08-27T02:47:18.715Z,6.50
2023-08-27T02:52:31.667Z,6.93
2023-08-27T02:57:45.962Z,6.90
2023-08-27T03:02:59.238Z,7.40
2023-08-27T03:08:12.655Z,6.93
2023-08-27T03:13:27.013Z,7.47
2023-08-27T03:18:39.936Z,6.97
2023-08-27T03:23:52.965Z,7.00
2023-08-27T03:29:08.750Z,7.27
2023-08-27T03:34:21.729Z,6.70
2023-08-27T03:39:34.725Z,7.40
2023-08-27T03:44:49.003Z,9.13
2023-08-27T03:50:01.956Z,7.20
2023-08-27T03:55:14.947Z,7.40
2023-08-27T04:00:29.277Z,6.83
2023-08-27T04:05:42.381Z,6.77
2023-08-27T04:10:55.537Z,7.03
2023-08-27T04:16:10.739Z,7.10
2023-08-27T04:21:23.676Z,6.70
2023-08-27T04:26:36.578Z,7.97
2023-08-27T04:31:50.917Z,7.07
2023-08-27T04:37:04.993Z,7.90
2023-08-27T04:42:17.947Z,8.57
2023-08-27T04:47:32.577Z,8.07
2023-08-27T04:52:46.631Z,8.33
2023-08-27T04:57:59.670Z,7.90
2023-08-27T05:03:14.215Z,7.90
2023-08-27T05:08:31.066Z,7.27
2023-08-27T05:13:44.221Z,7.60
2023-08-27T05:18:58.492Z,7.90
2023-08-27T05:24:11.392Z,8.00
2023-08-27T05:29:24.443Z,7.20
2023-08-27T05:34:38.692Z,7.03
2023-08-27T05:39:53.433Z,7.10
2023-08-27T05:45:06.872Z,7.10
2023-08-27T05:50:21.122Z,6.83
2023-08-27T05:55:34.545Z,6.30
2023-08-27T06:00:53.207Z,6.80
2023-08-27T06:06:07.511Z,5.87
2023-08-27T06:11:20.437Z,5.90
2023-08-27T06:16:33.367Z,4.97
2023-08-27T06:21:47.667Z,5.33
2023-08-27T06:27:00.567Z,4.60
2023-08-27T06:32:14.689Z,4.97
2023-08-27T06:37:29.017Z,5.37
2023-08-27T06:42:42.325Z,4.77
2023-08-27T06:47:55.298Z,4.70
2023-08-27T06:53:12.998Z,4.53
2023-08-27T06:58:26.117Z,3.87
2023-08-27T07:03:39.206Z,3.57
2023-08-27T07:08:54.309Z,4.17
2023-08-27T07:14:07.408Z,3.80
2023-08-27T07:19:21.466Z,3.57
2023-08-27T07:24:35.838Z,3.40
2023-08-27T07:29:49.378Z,3.00
2023-08-27T07:35:02.319Z,3.00
2023-08-27T07:40:21.019Z,2.83
2023-08-27T07:45:33.973Z,2.47
2023-08-27T07:50:46.977Z,2.60
2023-08-27T07:56:01.541Z,2.80
2023-08-27T08:01:14.538Z,2.90
2023-08-27T08:06:27.835Z,2.70
2023-08-27T08:14:16.954Z,2.77
2023-08-27T08:19:30.111Z,2.77
2023-08-27T08:24:43.007Z,2.77
2023-08-27T08:29:57.267Z,2.90
2023-08-27T08:35:10.325Z,2.87
2023-08-27T08:40:23.254Z,2.87
2023-08-27T08:45:39.215Z,3.20
2023-08-27T08:50:54.628Z,3.10
2023-08-27T08:56:08.854Z,3.13
2023-08-27T09:01:23.353Z,2.97
2023-08-27T09:06:36.466Z,3.17
2023-08-27T09:11:52.183Z,3.10
2023-08-27T09:17:09.141Z,3.20
2023-08-27T09:22:22.121Z,3.40
2023-08-27T09:27:35.028Z,3.17
2023-08-27T09:32:49.317Z,3.30
2023-08-27T09:38:02.521Z,3.47
2023-08-27T09:43:15.581Z,3.10
2023-08-27T09:48:29.984Z,2.80
2023-08-27T09:53:42.922Z,3.13
2023-08-27T09:58:56.507Z,3.17
2023-08-27T10:04:11.751Z,3.03
2023-08-27T10:09:24.747Z,2.90
2023-08-27T10:14:41.864Z,3.30
2023-08-27T10:19:56.210Z,2.63
2023-08-27T10:25:09.791Z,3.30
2023-08-27T10:30:24.960Z,2.87
2023-08-27T10:35:41.903Z,3.37
2023-08-27T10:40:54.886Z,3.27
2023-08-27T10:46:11.391Z,2.90
2023-08-27T10:51:33.453Z,2.80
2023-08-27T10:56:48.377Z,2.73
2023-08-27T11:02:08.849Z,3.20
2023-08-27T11:07:24.332Z,2.90
2023-08-27T11:12:37.862Z,3.10
2023-08-27T11:17:50.998Z,3.13
2023-08-27T11:23:10.356Z,3.30
2023-08-27T11:28:23.670Z,3.20
2023-08-27T11:33:37.101Z,2.90
2023-08-27T11:38:51.353Z,3.47
2023-08-27T11:44:04.961Z,3.50
2023-08-27T11:49:17.845Z,3.57
2023-08-27T11:54:32.922Z,3.67
2023-08-27T11:59:46.093Z,3.10
2023-08-27T12:04:59.105Z,2.30
2023-08-27T12:10:15.682Z,2.10
2023-08-27T12:15:30.345Z,2.50
2023-08-27T12:20:43.366Z,3.30
2023-08-27T12:25:59.726Z,3.93
2023-08-27T12:31:12.630Z,3.33
2023-08-27T12:36:25.727Z,3.00
2023-08-27T12:41:39.951Z,3.10
2023-08-27T12:46:52.865Z,3.13
2023-08-27T12:52:06.265Z,2.70
2023-08-27T12:57:20.555Z,2.90
2023-08-27T13:02:34.075Z,3.10
2023-08-27T13:07:47.072Z,3.30
2023-08-27T13:13:01.597Z,2.70
2023-08-27T13:18:14.504Z,2.70
2023-08-27T13:23:27.465Z,2.63
2023-08-27T13:28:42.016Z,2.67
2023-08-27T13:33:54.905Z,2.50
2023-08-27T13:39:07.806Z,2.87
2023-08-27T13:44:22.039Z,2.90
2023-08-27T13:49:34.930Z,2.77
2023-08-27T13:54:48.223Z,2.50
2023-08-27T14:00:02.608Z,2.83
2023-08-27T14:05:18.602Z,2.60
2023-08-27T14:10:31.500Z,2.70
2023-08-27T14:15:45.805Z,3.03
2023-08-27T14:20:58.726Z,3.03
2023-08-27T14:26:11.601Z,2.70
2023-08-27T14:31:25.926Z,2.27
2023-08-27T14:36:38.979Z,3.03
2023-08-27T14:41:53.381Z,3.00
2023-08-27T14:47:07.827Z,2.77
2023-08-27T14:52:20.718Z,2.93
2023-08-27T14:57:33.632Z,3.30
2023-08-27T15:02:48.009Z,2.23
2023-08-27T15:08:01.165Z,2.33
2023-08-27T15:13:14.301Z,2.40
2023-08-27T15:18:28.584Z,2.60
2023-08-27T15:23:41.522Z,2.60
2023-08-27T15:28:54.460Z,3.13
2023-08-27T15:34:10.100Z,2.93
2023-08-27T15:39:23.070Z,3.23
2023-08-27T15:44:35.976Z,2.93
2023-08-27T15:49:50.811Z,2.60
2023-08-27T15:55:05.303Z,2.57
2023-08-27T16:00:18.764Z,2.43
2023-08-27T16:05:33.710Z,2.50
2023-08-27T16:10:46.603Z,2.70
2023-08-27T16:15:40.511Z,2.40
2023-08-27T16:20:35.528Z,2.60
2023-08-27T16:25:28.166Z,2.63
2023-08-27T16:30:20.828Z,2.80
2023-08-27T16:35:14.013Z,2.50
2023-08-27T16:40:09.120Z,2.50
2023-08-27T16:45:01.837Z,2.90
2023-08-27T16:49:54.605Z,3.17
2023-08-27T16:54:47.491Z,3.10
2023-08-27T16:59:41.589Z,3.10
2023-08-27T17:04:34.445Z,3.13
2023-08-27T17:09:27.411Z,3.20
2023-08-27T17:14:20.073Z,3.00
2023-08-27T17:19:15.094Z,3.03
2023-08-27T17:24:08.505Z,2.90
2023-08-27T17:29:01.367Z,3.10
2023-08-27T17:33:54.229Z,2.63
2023-08-27T17:38:48.277Z,2.73
2023-08-27T17:43:41.024Z,3.40
2023-08-27T17:48:33.675Z,2.73
2023-08-27T17:53:27.522Z,2.77
2023-08-27T17:58:21.452Z,3.13
2023-08-27T18:03:14.611Z,3.77
2023-08-27T18:08:07.557Z,3.30
2023-08-27T18:13:00.155Z,3.17
2023-08-27T18:17:54.367Z,2.80
2023-08-27T18:22:47.121Z,3.20
2023-08-27T18:27:39.761Z,3.07
2023-08-27T18:32:32.459Z,3.50
2023-08-27T18:37:26.472Z,3.37
2023-08-27T18:42:31.685Z,3.00
2023-08-27T18:47:26.309Z,3.53
2023-08-27T18:52:18.918Z,3.60
2023-08-27T18:57:12.850Z,3.67
2023-08-27T19:02:06.349Z,3.37
2023-08-27T19:06:58.975Z,3.80
2023-08-27T19:11:51.735Z,3.50
2023-08-27T19:16:46.935Z,3.77
2023-08-27T19:21:39.644Z,3.53
2023-08-27T19:26:32.409Z,3.80
2023-08-27T19:31:33.196Z,3.70
2023-08-27T19:36:35.140Z,3.63
2023-08-27T19:41:27.860Z,3.57
2023-08-27T19:46:20.670Z,4.00
2023-08-27T19:51:13.322Z,4.10
2023-08-27T19:56:07.531Z,4.00
2023-08-27T20:01:01.561Z,4.20
2023-08-27T20:05:55.739Z,4.13
2023-08-27T20:10:48.410Z,4.10
2023-08-27T20:15:42.444Z,4.17
2023-08-27T20:20:35.394Z,3.70
2023-08-27T20:25:29.393Z,4.10
2023-08-27T20:30:22.434Z,3.87
2023-08-27T20:35:16.734Z,4.13
2023-08-27T20:40:10.828Z,4.17
2023-08-27T20:45:05.025Z,4.43
2023-08-27T20:49:57.652Z,4.87
2023-08-27T20:54:51.721Z,4.10
2023-08-27T20:59:44.535Z,4.53
2023-08-27T21:04:37.259Z,4.77
2023-08-27T21:09:30.097Z,4.43
2023-08-27T21:14:24.160Z,4.20
2023-08-27T21:19:16.810Z,4.10
2023-08-27T21:24:09.927Z,3.80
2023-08-27T21:29:03.346Z,3.90
2023-08-27T21:33:57.551Z,4.67
2023-08-27T21:38:50.290Z,4.47
2023-08-27T21:43:42.932Z,4.43
2023-08-27T21:48:35.573Z,4.60
2023-08-27T21:53:29.584Z,4.70
2023-08-27T21:58:22.294Z,4.50
2023-08-27T22:03:15.503Z,4.53
2023-08-27T22:08:09.358Z,4.47
2023-08-27T22:13:03.929Z,4.53
2023-08-27T22:17:57.031Z,4.50
2023-08-27T22:22:49.779Z,4.10
2023-08-27T22:27:42.593Z,4.40
2023-08-27T22:32:36.643Z,5.20
2023-08-27T22:37:29.330Z,5.03
2023-08-27T22:42:22.022Z,4.43
2023-08-27T22:47:14.663Z,4.50
2023-08-27T22:52:08.694Z,4.40
2023-08-27T22:57:01.539Z,4.57
2023-08-27T23:01:54.325Z,4.60
2023-08-27T23:06:46.973Z,4.87
2023-08-27T23:11:41.043Z,5.33
2023-08-27T23:16:33.812Z,5.20
2023-08-27T23:21:27.152Z,4.53
2023-08-27T23:26:19.819Z,5.07
2023-08-27T23:31:14.967Z,4.90
2023-08-27T23:36:07.937Z,5.03
2023-08-27T23:41:00.634Z,4.77
2023-08-27T23:45:53.326Z,4.47
2023-08-27T23:50:47.352Z,5.00
2023-08-27T23:55:40.073Z,5.00
